Flight Track Log - Related Links

Times and Time Zones

All times are in EDT time to prevent confusion due to time zone crossing. See the ACA603 flight status page for this flight to view local times or setup timezone preferences in your user account.

Time Position Orientation Groundspeed Altitude Reporting Facility
EDT Latitude Longitude Course Direction KTS MPH feet Rate Location/Type
Wed 04:47:58 AM 44.8667 -63.4833 295° West 120 138 1,000  Level Moncton Center
Wed 04:48:58 AM 44.8500 -63.4333 115° Southeast 140 161 3,600 1,650 Climbing Moncton Center
Wed 04:49:58 AM 44.8167 -63.4333 180° South 180 207 4,300 1,400 Climbing Moncton Center
Wed 04:50:58 AM 44.7833 -63.5000 235° Southwest 250 288 6,400 2,550 Climbing Moncton Center
Wed 04:51:00 AM 45.0230 -64.0539 294° West  Level FlightAware Approximate
Wed 04:51:58 AM 44.8167 -63.6000 295° West 290 334 9,400  Level Moncton Center
Wed 04:52:00 AM 45.0654 -64.1915 294° West  Level FlightAware Approximate
Wed 04:52:58 AM 44.8667 -63.6833 310° West 310 357 11,900  Level Moncton Center
Wed 04:53:00 AM 45.1044 -64.3297 295° West  Level FlightAware Approximate
Wed 04:53:58 AM 44.9333 -63.8000 309° West 310 357 14,400  Level Moncton Center
Wed 04:54:58 AM 44.9667 -63.9000 295° West 310 357 16,700 2,200 Climbing Moncton Center
Wed 04:55:58 AM 45.0000 -64.0000 295° West 300 345 18,800 1,800 Climbing Moncton Center
Wed 04:56:58 AM 45.0333 -64.1333 290° West 320 368 20,300 1,450 Climbing Moncton Center
Wed 04:57:58 AM 45.0667 -64.2500 292° West 330 380 21,700 1,200 Climbing Moncton Center
Wed 04:58:58 AM 45.1000 -64.4000 288° West 360 414 22,700 1,200 Climbing Moncton Center
Wed 04:59:58 AM 45.1167 -64.5333 280° West 370 426 24,100 1,350 Climbing Moncton Center
Wed 05:00:58 AM 45.1333 -64.6833 279° West 380 437 25,400 1,250 Climbing Moncton Center
Wed 05:01:58 AM 45.1667 -64.8167 290° West 390 449 26,600 1,200 Climbing Moncton Center
Wed 05:02:58 AM 45.1833 -64.9833 278° West 400 460 27,800 1,150 Climbing Moncton Center
Wed 05:03:58 AM 45.2000 -65.1500 278° West 400 460 28,900 1,150 Climbing Moncton Center
Wed 05:04:58 AM 45.2167 -65.3000 279° West 410 472 30,100 1,250 Climbing Moncton Center
Wed 05:05:58 AM 45.2500 -65.4667 286° West 410 472 31,400 1,300 Climbing Moncton Center
Wed 05:06:58 AM 45.2667 -65.6167 279° West 400 460 32,700 1,250 Climbing Moncton Center
Wed 05:07:58 AM 45.2833 -65.7833 278° West 400 460 33,900 650 Climbing Moncton Center
Wed 05:08:58 AM 45.3000 -65.9167 280° West 390 449 34,000 50 Climbing Moncton Center
Wed 05:09:58 AM 45.3167 -66.0667 279° West 390 449 34,000  Level Moncton Center
Wed 05:10:58 AM 45.3500 -66.2333 286° West 400 460 34,000  Level Moncton Center
Wed 05:11:58 AM 45.3500 -66.4000 270° West 400 460 34,000  Level Moncton Center
Wed 05:12:58 AM 45.3667 -66.5333 280° West 400 460 34,000  Level Moncton Center
Wed 05:13:58 AM 45.3833 -66.7000 278° West 400 460 34,000  Level Moncton Center
Wed 05:14:58 AM 45.4000 -66.8500 279° West 400 460 34,000  Level Moncton Center
Wed 05:15:58 AM 45.4333 -67.0167 286° West 400 460 34,000  Level Moncton Center
Wed 05:16:58 AM 45.4333 -67.1667 270° West 400 460 34,000  Level Moncton Center
Wed 05:17:58 AM 45.4500 -67.3333 278° West 400 460 34,000  Level Moncton Center
Wed 05:18:58 AM 45.4667 -67.4667 280° West 400 460 34,000  Level Moncton Center
Wed 05:19:58 AM 45.5000 -67.6500 285° West 400 460 34,000  Level Moncton Center
Wed 05:20:28 AM 45.5092 -67.7217 280° West 406 467 34,000  Level Boston Center
Wed 05:21:28 AM 45.5258 -67.8803 279° West 406 467 34,000  Level Boston Center
Wed 05:21:58 AM 45.5167 -67.9500 259° West 400 460 34,000  Level Moncton Center
Wed 05:22:58 AM 45.5333 -68.1167 278° West 400 460 34,000  Level Moncton Center
Wed 05:23:28 AM 45.5561 -68.1803 297° West 406 467 34,000  Level Boston Center
Wed 05:24:28 AM 45.5700 -68.3394 277° West 406 467 34,000  Level Boston Center
Wed 05:25:28 AM 45.5861 -68.4986 278° West 406 467 34,000  Level Boston Center
Wed 05:26:28 AM 45.6017 -68.6608 278° West 406 467 34,000  Level Boston Center
Wed 05:27:28 AM 45.6214 -68.8197 280° West 406 467 34,000  Level Boston Center
Wed 05:27:58 AM 45.6167 -68.9167 266° West 410 472 34,000  Level Moncton Center
Wed 05:28:28 AM 45.6389 -68.9789 297° West 406 467 34,000  Level Boston Center
Wed 05:29:28 AM 45.6558 -69.1353 279° West 406 467 34,000  Level Boston Center
Wed 05:30:28 AM 45.6728 -69.2947 279° West 406 467 34,000  Level Boston Center
Wed 05:30:58 AM 45.6667 -69.4000 265° West 410 472 34,000  Level Moncton Center
Wed 05:31:58 AM 45.6833 -69.5500 279° West 400 460 34,000  Level Moncton Center
Wed 05:32:58 AM 45.7000 -69.7167 278° West 400 460 34,000  Level Moncton Center
Wed 05:33:28 AM 45.7222 -69.7739 299° West 406 467 34,000  Level Boston Center
Wed 05:34:28 AM 45.7403 -69.9336 279° West 406 467 34,000  Level Boston Center
Wed 05:35:28 AM 45.7561 -70.0933 278° West 406 467 34,000  Level Boston Center
Wed 05:36:28 AM 45.7717 -70.2533 278° West 406 467 34,000  Level Boston Center
Wed 05:37:28 AM 45.7850 -70.4106 277° West 406 467 34,000  Level Boston Center
Wed 05:37:45 AM 45.7667 -70.4333 221° Southwest 400 460 34,000  Level Montreal Center
Wed 05:38:45 AM 45.7667 -70.6000 270° West 390 449 34,000 -300 Level Montreal Center
Wed 05:39:45 AM 45.7500 -70.7833 263° West 400 460 33,400 -500 Descending Montreal Center
Wed 05:40:45 AM 45.7333 -70.9167 260° West 410 472 33,000 -200 Descending Montreal Center
Wed 05:41:45 AM 45.7333 -71.1000 270° West 410 472 33,000  Level Montreal Center
Wed 05:42:45 AM 45.7167 -71.2667 262° West 410 472 33,000  Level Montreal Center
Wed 05:43:45 AM 45.7167 -71.4000 270° West 420 483 33,000 -500 Level Montreal Center
Wed 05:44:45 AM 45.6833 -71.5833 255° West 420 483 32,000 -500 Descending Montreal Center
Wed 05:45:45 AM 45.6833 -71.7500 270° West 420 483 32,000  Level Montreal Center
Wed 05:46:45 AM 45.6667 -71.9167 262° West 430 495 32,000  Level Montreal Center
Wed 05:47:45 AM 45.6500 -72.0833 262° West 410 472 32,000  Level Montreal Center
Wed 05:48:45 AM 45.6500 -72.2333 270° West 400 460 32,000  Level Montreal Center
Wed 05:49:45 AM 45.6333 -72.4000 262° West 400 460 32,000  Level Montreal Center
Wed 05:50:45 AM 45.6167 -72.5667 262° West 400 460 32,000  Level Montreal Center
Wed 05:51:45 AM 45.6167 -72.7167 270° West 400 460 32,000  Level Montreal Center
Wed 05:52:45 AM 45.6167 -72.8833 270° West 390 449 32,000  Level Montreal Center
Wed 05:53:45 AM 45.6000 -73.0167 260° West 390 449 32,000  Level Montreal Center
Wed 05:54:45 AM 45.6000 -73.1833 270° West 390 449 32,000  Level Montreal Center
Wed 05:55:45 AM 45.6167 -73.3500 278° West 390 449 32,000  Level Montreal Center
Wed 05:56:45 AM 45.6167 -73.5000 270° West 390 449 32,000  Level Montreal Center
Wed 05:57:45 AM 45.6000 -73.6667 262° West 390 449 32,000 50 Level Montreal Center
Wed 05:58:45 AM 45.6000 -73.8167 270° West 390 449 32,100  Climbing Montreal Center
Wed 05:59:45 AM 45.6000 -73.9833 270° West 380 437 32,000 -100 Descending Montreal Center
Wed 06:00:45 AM 45.5833 -74.1167 260° West 380 437 31,900  Descending Montreal Center
Wed 06:01:45 AM 45.5667 -74.2667 261° West 370 426 32,000 50 Climbing Montreal Center
Wed 06:02:45 AM 45.5333 -74.3833 248° West 370 426 32,000  Level Montreal Center
Wed 06:03:45 AM 45.5167 -74.5500 262° West 370 426 32,000  Level Montreal Center
Wed 06:04:45 AM 45.5000 -74.6833 260° West 370 426 32,000  Level Montreal Center
Wed 06:05:45 AM 45.4667 -74.8500 254° West 370 426 32,000  Level Montreal Center
Wed 06:06:45 AM 45.4500 -74.9667 259° West 370 426 32,000  Level Montreal Center
Wed 06:07:45 AM 45.4167 -75.1167 252° West 370 426 32,000  Level Montreal Center
Wed 06:08:45 AM 45.4000 -75.2500 260° West 360 414 32,000  Level Montreal Center
Wed 06:09:45 AM 45.3667 -75.4000 252° West 360 414 32,000  Level Montreal Center
Wed 06:10:45 AM 45.3500 -75.5333 260° West 360 414 32,000  Level Montreal Center
Wed 06:11:45 AM 45.3333 -75.6833 261° West 360 414 32,000  Level Montreal Center
Wed 06:12:45 AM 45.3000 -75.8333 253° West 360 414 32,000  Level Montreal Center
Wed 06:13:45 AM 45.2833 -75.9667 260° West 360 414 32,000  Level Montreal Center
Wed 06:14:45 AM 45.2667 -76.0833 259° West 360 414 32,000  Level Montreal Center
Wed 06:15:45 AM 45.2167 -76.2333 245° Southwest 360 414 32,000  Level Montreal Center
Wed 06:16:45 AM 45.1667 -76.3500 239° Southwest 360 414 32,000  Level Montreal Center
Wed 06:17:50 AM 45.1000 -76.4500 227° Southwest 360 414 32,000  Level Toronto Center
Wed 06:18:50 AM 45.0333 -76.5333 221° Southwest 370 426 32,000  Level Toronto Center
Wed 06:19:45 AM 44.9833 -76.6833 245° Southwest 360 414 32,000  Level Montreal Center
Wed 06:20:45 AM 44.9000 -76.7667 215° Southwest 370 426 32,000  Level Montreal Center
Wed 06:21:45 AM 44.8500 -76.8833 239° Southwest 360 414 32,000  Level Montreal Center
Wed 06:22:45 AM 44.7833 -77.0000 231° Southwest 360 414 32,000  Level Montreal Center
Wed 06:23:45 AM 44.7333 -77.1167 239° Southwest 360 414 32,000  Level Montreal Center
Wed 06:24:45 AM 44.6833 -77.2333 239° Southwest 360 414 32,000  Level Montreal Center
Wed 06:25:45 AM 44.6333 -77.3500 239° Southwest 360 414 32,000  Level Montreal Center
Wed 06:26:50 AM 44.5833 -77.4833 242° Southwest 360 414 32,000  Level Toronto Center
Wed 06:27:50 AM 44.5333 -77.5667 230° Southwest 350 403 32,000 -100 Level Toronto Center
Wed 06:28:50 AM 44.4833 -77.7167 245° Southwest 350 403 31,800 -700 Descending Toronto Center
Wed 06:29:50 AM 44.4333 -77.8333 239° Southwest 360 414 30,600 -2,450 Descending Toronto Center
Wed 06:30:50 AM 44.3833 -77.9500 239° Southwest 370 426 26,900 -3,300 Descending Toronto Center
Wed 06:31:50 AM 44.3167 -78.1000 238° Southwest 390 449 24,000 -2,700 Descending Toronto Center
Wed 06:32:50 AM 44.2667 -78.2167 239° Southwest 380 437 21,500 -2,550 Descending Toronto Center
Wed 06:33:50 AM 44.2167 -78.3333 239° Southwest 370 426 18,900 -2,450 Descending Toronto Center
Wed 06:34:50 AM 44.1667 -78.4500 239° Southwest 370 426 16,600 -2,400 Descending Toronto Center
Wed 06:35:50 AM 44.1333 -78.5833 251° West 360 414 14,100 -2,350 Descending Toronto Center
Wed 06:36:50 AM 44.0833 -78.6833 235° Southwest 350 403 11,900 -1,650 Descending Toronto Center
Wed 06:37:50 AM 44.0333 -78.8000 239° Southwest 330 380 10,800 -950 Descending Toronto Center
Wed 06:38:50 AM 43.9667 -78.8667 216° Southwest 280 322 10,000 -1,150 Descending Toronto Center
Wed 06:39:50 AM 43.9333 -78.9333 235° Southwest 250 288 8,500 -1,350 Descending Toronto Center
Wed 06:40:50 AM 43.8833 -79.0000 224° Southwest 240 276 7,300 -900 Descending Toronto Center
Wed 06:41:50 AM 43.8667 -79.0833 255° West 210 242 6,700 -800 Descending Toronto Center
Wed 06:42:50 AM 43.8500 -79.1667 255° West 220 253 5,700 -800 Descending Toronto Center
Wed 06:43:50 AM 43.8333 -79.2333 251° West 200 230 5,100 -600 Descending Toronto Center
Wed 06:44:50 AM 43.8167 -79.3167 255° West 190 219 4,500 -600 Descending Toronto Center
Wed 06:45:50 AM 43.7833 -79.3833 235° Southwest 190 219 3,900 -650 Descending Toronto Center
Wed 06:46:50 AM 43.7667 -79.4333 245° Southwest 180 207 3,200 -650 Descending Toronto Center
Wed 06:47:50 AM 43.7333 -79.4667 216° Southwest 160 184 2,600 -650 Descending Toronto Center
Wed 06:48:50 AM 43.7167 -79.5167 245° Southwest 140 161 1,900 -700 Descending Toronto Center
Wed 06:49:50 AM 43.6833 -79.5333 200° South 130 150 1,200 -700 Descending Toronto Center

Login

Don't have an account? Register now (free) for customized features, flight alerts, and more!